Weather History For Prescott AZ
This page updates 5 minutes after midnight. GMT -7
Station: KPRC0 Rows: 26
| Year | Date | Temp (°F) | Tmin (°F) | Tmax (°F) | RH% | Prcp | Snow | Wind | Gust | Pres | Sun | Cloud |
|---|---|---|---|---|---|---|---|---|---|---|---|---|
| 2000 | 2000-04-05 | 59.7 | 43.0 | 75.0 | 31 | — | — | 14.5 | — | 29.92 | — | 0 |
| 2001 | 2001-04-05 | 46.6 | 39.9 | 53.1 | 65 | — | — | 17.8 | — | 29.80 | — | 5 |
| 2002 | 2002-04-05 | 58.8 | 44.6 | 73.4 | 24 | — | — | 14.0 | — | 29.92 | — | 0 |
| 2003 | 2003-04-05 | 41.4 | 35.6 | 46.4 | 40 | — | — | 17.4 | — | 29.79 | — | 3 |
| 2004 | 2004-04-05 | 47.1 | — | — | 81 | — | — | 9.3 | — | 29.92 | — | 6 |
| 2005 | 2005-04-05 | 48.4 | 36.0 | 64.0 | 29 | 0.0 | — | 14.9 | — | 30.09 | — | 0 |
| 2006 | 2006-04-05 | 45.9 | 34.0 | 57.9 | 61 | — | — | 28.2 | — | 29.72 | — | 5 |
| 2007 | 2007-04-05 | 61.2 | 46.9 | 77.0 | 25 | 0.0 | — | 6.5 | — | 29.92 | — | 0 |
| 2008 | 2008-04-05 | 53.8 | 37.0 | 66.0 | 25 | 0.0 | — | 17.0 | — | 29.74 | — | 0 |
| 2009 | 2009-04-05 | 44.1 | 26.1 | 61.0 | 31 | 0.0 | — | 7.4 | — | 30.16 | — | 0 |
| 2010 | 2010-04-05 | 52.9 | 46.9 | 60.1 | 37 | 0.0 | — | 25.7 | — | 29.77 | — | 2 |
| 2011 | 2011-04-05 | 55.8 | 36.0 | 73.9 | 22 | 0.0 | — | 11.0 | — | 29.91 | — | 0 |
| 2012 | 2012-04-05 | 55.9 | 41.0 | 68.0 | 22 | 0.0 | — | 17.0 | — | 29.77 | — | 0 |
| 2013 | 2013-04-05 | 60.8 | 46.0 | 72.0 | 26 | 0.0 | — | 15.4 | — | 29.85 | — | 0 |
| 2014 | 2014-04-05 | 48.0 | 39.9 | 57.9 | 28 | 0.0 | — | 12.3 | — | 29.79 | — | — |
| 2015 | 2015-04-05 | 55.6 | 39.9 | 68.0 | 20 | 0.0 | — | 15.0 | — | 29.77 | — | 0 |
| 2016 | 2016-04-05 | 59.2 | 41.0 | 75.9 | 22 | 0.0 | — | 11.6 | — | 30.06 | — | 0 |
| 2017 | 2017-04-05 | 50.4 | 33.1 | 66.9 | 37 | 0.0 | — | 7.5 | — | 30.07 | — | 0 |
| 2018 | 2018-04-05 | 59.9 | 42.1 | 77.0 | 28 | 0.0 | — | 11.2 | — | 29.91 | — | 0 |
| 2019 | 2019-04-05 | 52.3 | 37.0 | 64.0 | 41 | 0.0 | — | 11.6 | — | 29.85 | — | 1 |
| 2020 | 2020-04-05 | 52.5 | 39.9 | 63.0 | 39 | 0.0 | — | 15.4 | — | 29.76 | — | 0 |
| 2021 | 2021-04-05 | 62.6 | 46.0 | 75.9 | 18 | 0.0 | — | 19.7 | — | 29.74 | — | 0 |
| 2022 | 2022-04-05 | 64.0 | 50.0 | 75.9 | 26 | 0.0 | — | 21.5 | — | 29.79 | — | 0 |
| 2023 | 2023-04-05 | 36.3 | 21.0 | 52.0 | 31 | 0.0 | — | 10.0 | — | 30.06 | — | 0 |
| 2024 | 2024-04-05 | 44.2 | 32.0 | 53.1 | 48 | — | — | 26.4 | — | 29.67 | — | 4 |
| 2025 | 2025-04-05 | 44.6 | 33.1 | 59.0 | 50 | — | — | 10.9 | — | 30.09 | — | 1 |